sensor_id;sensor_type;location;lat;lon;timestamp;temperature;humidity
71177;DHT22;58877;51.992;4.504;2022-08-19T00:01:28;19.46;80.79
71177;DHT22;58877;51.992;4.504;2022-08-19T00:03:59;19.41;80.80
71177;DHT22;58877;51.992;4.504;2022-08-19T00:06:36;19.44;80.71
71177;DHT22;58877;51.992;4.504;2022-08-19T00:09:04;19.46;80.55
71177;DHT22;58877;51.992;4.504;2022-08-19T00:11:30;19.46;80.68
71177;DHT22;58877;51.992;4.504;2022-08-19T00:13:56;19.46;80.64
71177;DHT22;58877;51.992;4.504;2022-08-19T00:16:23;19.44;80.75
71177;DHT22;58877;51.992;4.504;2022-08-19T00:18:50;19.44;80.71
71177;DHT22;58877;51.992;4.504;2022-08-19T00:21:17;19.43;80.72
71177;DHT22;58877;51.992;4.504;2022-08-19T00:23:43;19.44;80.75
71177;DHT22;58877;51.992;4.504;2022-08-19T00:26:10;19.37;80.72
71177;DHT22;58877;51.992;4.504;2022-08-19T00:28:36;19.37;80.70
71177;DHT22;58877;51.992;4.504;2022-08-19T00:31:07;19.34;80.75
71177;DHT22;58877;51.992;4.504;2022-08-19T00:33:33;19.38;80.97
71177;DHT22;58877;51.992;4.504;2022-08-19T00:36:00;19.41;80.98
71177;DHT22;58877;51.992;4.504;2022-08-19T00:38:26;19.44;81.10
71177;DHT22;58877;51.992;4.504;2022-08-19T00:40:53;19.47;81.21
71177;DHT22;58877;51.992;4.504;2022-08-19T00:43:21;19.46;81.37
71177;DHT22;58877;51.992;4.504;2022-08-19T00:45:47;19.43;81.41
71177;DHT22;58877;51.992;4.504;2022-08-19T00:48:14;19.40;81.27
71177;DHT22;58877;51.992;4.504;2022-08-19T00:50:42;19.44;81.06
71177;DHT22;58877;51.992;4.504;2022-08-19T00:53:16;19.55;80.50
71177;DHT22;58877;51.992;4.504;2022-08-19T00:55:46;19.67;80.23
71177;DHT22;58877;51.992;4.504;2022-08-19T00:58:21;19.55;80.23
71177;DHT22;58877;51.992;4.504;2022-08-19T01:00:51;19.41;80.67
71177;DHT22;58877;51.992;4.504;2022-08-19T01:03:20;19.37;80.90
71177;DHT22;58877;51.992;4.504;2022-08-19T01:05:49;19.33;81.07
71177;DHT22;58877;51.992;4.504;2022-08-19T01:08:17;19.35;81.18
71177;DHT22;58877;51.992;4.504;2022-08-19T01:13:15;19.43;81.02
71177;DHT22;58877;51.992;4.504;2022-08-19T01:15:46;19.37;80.95
71177;DHT22;58877;51.992;4.504;2022-08-19T01:18:18;19.38;81.01
71177;DHT22;58877;51.992;4.504;2022-08-19T01:20:44;19.37;81.21
71177;DHT22;58877;51.992;4.504;2022-08-19T01:23:14;19.40;81.37
71177;DHT22;58877;51.992;4.504;2022-08-19T01:25:52;19.46;81.50
71177;DHT22;58877;51.992;4.504;2022-08-19T01:28:25;19.46;81.25
71177;DHT22;58877;51.992;4.504;2022-08-19T01:31:09;19.60;80.93
71177;DHT22;58877;51.992;4.504;2022-08-19T01:33:37;19.68;80.69
71177;DHT22;58877;51.992;4.504;2022-08-19T01:36:13;19.77;80.40
71177;DHT22;58877;51.992;4.504;2022-08-19T01:38:43;19.74;80.37
71177;DHT22;58877;51.992;4.504;2022-08-19T01:41:12;19.78;80.19
71177;DHT22;58877;51.992;4.504;2022-08-19T01:43:40;19.68;80.49
71177;DHT22;58877;51.992;4.504;2022-08-19T01:46:08;19.64;80.86
71177;DHT22;58877;51.992;4.504;2022-08-19T01:48:40;19.64;81.09
71177;DHT22;58877;51.992;4.504;2022-08-19T01:51:08;19.65;81.06
71177;DHT22;58877;51.992;4.504;2022-08-19T01:53:35;19.85;81.10
71177;DHT22;58877;51.992;4.504;2022-08-19T01:56:02;20.11;80.37
71177;DHT22;58877;51.992;4.504;2022-08-19T01:58:36;20.14;80.50
71177;DHT22;58877;51.992;4.504;2022-08-19T02:01:08;20.04;81.00
71177;DHT22;58877;51.992;4.504;2022-08-19T02:03:36;20.05;81.13
71177;DHT22;58877;51.992;4.504;2022-08-19T02:06:03;19.91;81.26
71177;DHT22;58877;51.992;4.504;2022-08-19T02:08:36;19.81;81.30
71177;DHT22;58877;51.992;4.504;2022-08-19T02:11:05;19.75;81.66
71177;DHT22;58877;51.992;4.504;2022-08-19T02:13:33;19.78;81.77
71177;DHT22;58877;51.992;4.504;2022-08-19T02:15:59;19.78;81.67
71177;DHT22;58877;51.992;4.504;2022-08-19T02:18:26;19.79;81.64
71177;DHT22;58877;51.992;4.504;2022-08-19T02:20:52;19.82;81.72
71177;DHT22;58877;51.992;4.504;2022-08-19T02:23:20;19.89;81.73
71177;DHT22;58877;51.992;4.504;2022-08-19T02:25:48;19.91;81.61
71177;DHT22;58877;51.992;4.504;2022-08-19T02:28:14;20.07;81.11
71177;DHT22;58877;51.992;4.504;2022-08-19T02:30:42;20.12;80.79
71177;DHT22;58877;51.992;4.504;2022-08-19T02:33:08;20.05;81.03
71177;DHT22;58877;51.992;4.504;2022-08-19T02:35:44;19.99;81.29
71177;DHT22;58877;51.992;4.504;2022-08-19T02:38:10;19.82;81.43
71177;DHT22;58877;51.992;4.504;2022-08-19T02:40:57;19.75;81.56
71177;DHT22;58877;51.992;4.504;2022-08-19T02:43:25;19.71;81.80
71177;DHT22;58877;51.992;4.504;2022-08-19T02:45:52;19.74;82.07
71177;DHT22;58877;51.992;4.504;2022-08-19T02:48:23;19.88;81.84
71177;DHT22;58877;51.992;4.504;2022-08-19T02:50:51;20.02;81.51
71177;DHT22;58877;51.992;4.504;2022-08-19T02:53:40;19.91;81.86
71177;DHT22;58877;51.992;4.504;2022-08-19T02:56:07;19.88;82.02
71177;DHT22;58877;51.992;4.504;2022-08-19T02:58:34;19.78;82.04
71177;DHT22;58877;51.992;4.504;2022-08-19T03:01:02;19.75;82.45
71177;DHT22;58877;51.992;4.504;2022-08-19T03:03:28;19.73;82.36
71177;DHT22;58877;51.992;4.504;2022-08-19T03:06:11;19.64;82.43
71177;DHT22;58877;51.992;4.504;2022-08-19T03:08:44;19.60;82.94
71177;DHT22;58877;51.992;4.504;2022-08-19T03:13:44;19.54;82.80
71177;DHT22;58877;51.992;4.504;2022-08-19T03:16:11;19.49;82.76
71177;DHT22;58877;51.992;4.504;2022-08-19T03:18:38;19.47;82.94
71177;DHT22;58877;51.992;4.504;2022-08-19T03:21:04;19.44;83.14
71177;DHT22;58877;51.992;4.504;2022-08-19T03:23:31;19.49;83.12
71177;DHT22;58877;51.992;4.504;2022-08-19T03:25:56;19.54;83.09
71177;DHT22;58877;51.992;4.504;2022-08-19T03:28:22;19.51;82.87
71177;DHT22;58877;51.992;4.504;2022-08-19T03:31:00;19.47;82.92
71177;DHT22;58877;51.992;4.504;2022-08-19T03:33:27;19.44;83.02
71177;DHT22;58877;51.992;4.504;2022-08-19T03:38:40;19.51;82.88
71177;DHT22;58877;51.992;4.504;2022-08-19T03:41:17;19.53;82.96
71177;DHT22;58877;51.992;4.504;2022-08-19T03:43:47;19.53;83.22
71177;DHT22;58877;51.992;4.504;2022-08-19T03:46:20;19.51;83.32
71177;DHT22;58877;51.992;4.504;2022-08-19T03:48:51;19.55;83.20
71177;DHT22;58877;51.992;4.504;2022-08-19T03:51:32;19.63;83.15
71177;DHT22;58877;51.992;4.504;2022-08-19T03:54:01;19.64;83.16
71177;DHT22;58877;51.992;4.504;2022-08-19T03:56:29;19.71;83.12
71177;DHT22;58877;51.992;4.504;2022-08-19T03:58:58;19.78;82.62
71177;DHT22;58877;51.992;4.504;2022-08-19T04:01:30;19.78;82.50
71177;DHT22;58877;51.992;4.504;2022-08-19T04:03:57;19.78;82.70
71177;DHT22;58877;51.992;4.504;2022-08-19T04:06:27;19.79;82.74
71177;DHT22;58877;51.992;4.504;2022-08-19T04:08:55;19.70;82.57
71177;DHT22;58877;51.992;4.504;2022-08-19T04:11:26;19.61;82.92
71177;DHT22;58877;51.992;4.504;2022-08-19T04:13:53;19.58;83.28
71177;DHT22;58877;51.992;4.504;2022-08-19T04:16:22;19.60;83.45
71177;DHT22;58877;51.992;4.504;2022-08-19T04:18:49;19.54;83.64
71177;DHT22;58877;51.992;4.504;2022-08-19T04:21:18;19.63;83.79
71177;DHT22;58877;51.992;4.504;2022-08-19T04:23:45;19.70;83.86
71177;DHT22;58877;51.992;4.504;2022-08-19T04:26:20;19.82;83.33
71177;DHT22;58877;51.992;4.504;2022-08-19T04:28:49;19.85;83.16
71177;DHT22;58877;51.992;4.504;2022-08-19T04:31:18;19.63;84.18
71177;DHT22;58877;51.992;4.504;2022-08-19T04:33:44;19.54;84.73
71177;DHT22;58877;51.992;4.504;2022-08-19T04:36:22;19.47;85.01
71177;DHT22;58877;51.992;4.504;2022-08-19T04:38:50;19.44;85.29
71177;DHT22;58877;51.992;4.504;2022-08-19T04:41:19;19.49;85.48
71177;DHT22;58877;51.992;4.504;2022-08-19T04:44:04;19.55;85.19
71177;DHT22;58877;51.992;4.504;2022-08-19T04:46:31;19.55;85.32
71177;DHT22;58877;51.992;4.504;2022-08-19T04:49:02;19.63;85.31
71177;DHT22;58877;51.992;4.504;2022-08-19T04:51:28;19.61;85.31
71177;DHT22;58877;51.992;4.504;2022-08-19T04:53:57;19.64;85.44
71177;DHT22;58877;51.992;4.504;2022-08-19T04:56:25;19.67;85.26
71177;DHT22;58877;51.992;4.504;2022-08-19T04:58:53;19.75;85.10
71177;DHT22;58877;51.992;4.504;2022-08-19T05:01:27;19.84;85.01
71177;DHT22;58877;51.992;4.504;2022-08-19T05:03:57;19.89;84.66
71177;DHT22;58877;51.992;4.504;2022-08-19T05:06:27;19.97;84.88
71177;DHT22;58877;51.992;4.504;2022-08-19T05:08:54;20.12;84.00
71177;DHT22;58877;51.992;4.504;2022-08-19T05:11:26;20.14;83.84
71177;DHT22;58877;51.992;4.504;2022-08-19T05:13:57;20.19;83.81
71177;DHT22;58877;51.992;4.504;2022-08-19T05:16:25;20.21;83.81
71177;DHT22;58877;51.992;4.504;2022-08-19T05:18:52;20.29;83.47
71177;DHT22;58877;51.992;4.504;2022-08-19T05:21:38;20.28;83.32
71177;DHT22;58877;51.992;4.504;2022-08-19T05:24:23;20.29;83.72
71177;DHT22;58877;51.992;4.504;2022-08-19T05:26:51;20.38;83.72
71177;DHT22;58877;51.992;4.504;2022-08-19T05:29:19;20.40;83.57
71177;DHT22;58877;51.992;4.504;2022-08-19T05:31:47;20.50;82.90
71177;DHT22;58877;51.992;4.504;2022-08-19T05:34:21;20.49;82.89
71177;DHT22;58877;51.992;4.504;2022-08-19T05:36:50;20.56;83.10
71177;DHT22;58877;51.992;4.504;2022-08-19T05:39:20;20.53;82.73
71177;DHT22;58877;51.992;4.504;2022-08-19T05:42:03;20.60;82.68
71177;DHT22;58877;51.992;4.504;2022-08-19T05:44:38;20.60;82.64
71177;DHT22;58877;51.992;4.504;2022-08-19T05:47:13;20.66;82.58
71177;DHT22;58877;51.992;4.504;2022-08-19T05:49:41;20.63;82.40
71177;DHT22;58877;51.992;4.504;2022-08-19T05:52:10;20.63;82.51
71177;DHT22;58877;51.992;4.504;2022-08-19T05:54:42;20.75;82.84
71177;DHT22;58877;51.992;4.504;2022-08-19T05:57:12;20.83;82.28
71177;DHT22;58877;51.992;4.504;2022-08-19T05:59:39;20.94;81.84
71177;DHT22;58877;51.992;4.504;2022-08-19T06:02:06;21.06;81.75
71177;DHT22;58877;51.992;4.504;2022-08-19T06:04:32;21.19;81.31
71177;DHT22;58877;51.992;4.504;2022-08-19T06:06:58;21.20;80.73
71177;DHT22;58877;51.992;4.504;2022-08-19T06:09:33;21.08;80.63
71177;DHT22;58877;51.992;4.504;2022-08-19T06:11:59;21.03;80.87
71177;DHT22;58877;51.992;4.504;2022-08-19T06:14:30;20.87;81.40
71177;DHT22;58877;51.992;4.504;2022-08-19T06:16:57;20.93;81.56
71177;DHT22;58877;51.992;4.504;2022-08-19T06:19:26;20.86;81.50
71177;DHT22;58877;51.992;4.504;2022-08-19T06:21:56;20.93;82.04
71177;DHT22;58877;51.992;4.504;2022-08-19T06:24:25;21.03;81.65
71177;DHT22;58877;51.992;4.504;2022-08-19T06:26:53;21.06;81.53
71177;DHT22;58877;51.992;4.504;2022-08-19T06:29:22;21.13;81.51
71177;DHT22;58877;51.992;4.504;2022-08-19T06:32:02;21.34;81.37
71177;DHT22;58877;51.992;4.504;2022-08-19T06:34:33;21.41;80.62
71177;DHT22;58877;51.992;4.504;2022-08-19T06:37:01;21.54;80.80
71177;DHT22;58877;51.992;4.504;2022-08-19T06:39:31;21.75;80.45
71177;DHT22;58877;51.992;4.504;2022-08-19T06:42:11;21.87;78.73
71177;DHT22;58877;51.992;4.504;2022-08-19T06:44:43;21.95;78.72
71177;DHT22;58877;51.992;4.504;2022-08-19T06:47:13;22.08;78.50
71177;DHT22;58877;51.992;4.504;2022-08-19T06:49:39;22.16;78.53
71177;DHT22;58877;51.992;4.504;2022-08-19T06:52:09;21.87;78.75
71177;DHT22;58877;51.992;4.504;2022-08-19T06:54:41;21.44;80.18
71177;DHT22;58877;51.992;4.504;2022-08-19T06:57:09;21.26;80.79
71177;DHT22;58877;51.992;4.504;2022-08-19T06:59:40;21.14;81.77
71177;DHT22;58877;51.992;4.504;2022-08-19T07:02:06;21.26;81.37
71177;DHT22;58877;51.992;4.504;2022-08-19T07:04:33;21.43;81.50
71177;DHT22;58877;51.992;4.504;2022-08-19T07:07:09;21.61;80.78
71177;DHT22;58877;51.992;4.504;2022-08-19T07:09:37;21.58;80.56
71177;DHT22;58877;51.992;4.504;2022-08-19T07:12:06;21.79;80.23
71177;DHT22;58877;51.992;4.504;2022-08-19T07:14:34;22.19;79.04
71177;DHT22;58877;51.992;4.504;2022-08-19T07:17:08;22.49;78.00
71177;DHT22;58877;51.992;4.504;2022-08-19T07:19:34;22.62;76.95
71177;DHT22;58877;51.992;4.504;2022-08-19T07:22:03;22.64;76.21
71177;DHT22;58877;51.992;4.504;2022-08-19T07:24:29;22.66;76.24
71177;DHT22;58877;51.992;4.504;2022-08-19T07:26:57;22.45;77.06
71177;DHT22;58877;51.992;4.504;2022-08-19T07:29:29;22.21;78.61
71177;DHT22;58877;51.992;4.504;2022-08-19T07:31:56;22.09;78.61
71177;DHT22;58877;51.992;4.504;2022-08-19T07:34:25;22.19;78.71
71177;DHT22;58877;51.992;4.504;2022-08-19T07:36:52;22.28;78.24
71177;DHT22;58877;51.992;4.504;2022-08-19T07:39:43;22.02;78.62
71177;DHT22;58877;51.992;4.504;2022-08-19T07:42:11;21.78;80.10
71177;DHT22;58877;51.992;4.504;2022-08-19T07:44:37;21.64;80.18
71177;DHT22;58877;51.992;4.504;2022-08-19T07:47:04;21.79;80.03
71177;DHT22;58877;51.992;4.504;2022-08-19T07:49:30;21.92;79.12
71177;DHT22;58877;51.992;4.504;2022-08-19T07:52:00;22.01;78.88
71177;DHT22;58877;51.992;4.504;2022-08-19T07:54:29;21.79;79.33
71177;DHT22;58877;51.992;4.504;2022-08-19T07:56:56;21.89;79.56
71177;DHT22;58877;51.992;4.504;2022-08-19T07:59:23;22.15;78.89
71177;DHT22;58877;51.992;4.504;2022-08-19T08:01:49;22.25;78.58
71177;DHT22;58877;51.992;4.504;2022-08-19T08:04:17;22.42;77.93
71177;DHT22;58877;51.992;4.504;2022-08-19T08:07:03;22.59;77.54
71177;DHT22;58877;51.992;4.504;2022-08-19T08:09:47;22.72;76.98
71177;DHT22;58877;51.992;4.504;2022-08-19T08:12:23;22.69;76.29
71177;DHT22;58877;51.992;4.504;2022-08-19T08:14:59;22.76;76.95
71177;DHT22;58877;51.992;4.504;2022-08-19T08:17:28;23.03;76.15
71177;DHT22;58877;51.992;4.504;2022-08-19T08:19:55;23.13;75.13
71177;DHT22;58877;51.992;4.504;2022-08-19T08:22:22;23.40;74.97
71177;DHT22;58877;51.992;4.504;2022-08-19T08:25:11;23.54;73.25
71177;DHT22;58877;51.992;4.504;2022-08-19T08:27:41;23.34;74.69
71177;DHT22;58877;51.992;4.504;2022-08-19T08:30:09;23.18;75.38
71177;DHT22;58877;51.992;4.504;2022-08-19T08:32:36;23.40;74.29
71177;DHT22;58877;51.992;4.504;2022-08-19T08:35:05;23.67;73.43
71177;DHT22;58877;51.992;4.504;2022-08-19T08:37:31;23.79;73.37
71177;DHT22;58877;51.992;4.504;2022-08-19T08:39:57;23.84;72.78
71177;DHT22;58877;51.992;4.504;2022-08-19T08:42:32;23.94;72.75
71177;DHT22;58877;51.992;4.504;2022-08-19T08:45:08;23.92;72.47
71177;DHT22;58877;51.992;4.504;2022-08-19T08:47:45;24.29;71.96
71177;DHT22;58877;51.992;4.504;2022-08-19T08:50:21;24.52;70.58
71177;DHT22;58877;51.992;4.504;2022-08-19T08:52:52;24.76;70.06
71177;DHT22;58877;51.992;4.504;2022-08-19T08:55:25;25.02;69.20
71177;DHT22;58877;51.992;4.504;2022-08-19T08:58:05;25.08;67.64
71177;DHT22;58877;51.992;4.504;2022-08-19T09:00:35;25.24;67.10
71177;DHT22;58877;51.992;4.504;2022-08-19T09:03:03;24.98;67.61
71177;DHT22;58877;51.992;4.504;2022-08-19T09:08:55;24.74;68.11
71177;DHT22;58877;51.992;4.504;2022-08-19T09:12:26;24.12;70.91
71177;DHT22;58877;51.992;4.504;2022-08-19T09:17:12;24.90;68.22
71177;DHT22;58877;51.992;4.504;2022-08-19T09:22:37;25.26;67.67
71177;DHT22;58877;51.992;4.504;2022-08-19T09:25:04;24.96;67.58
71177;DHT22;58877;51.992;4.504;2022-08-19T09:27:30;24.53;68.37
71177;DHT22;58877;51.992;4.504;2022-08-19T09:29:56;24.46;69.78
71177;DHT22;58877;51.992;4.504;2022-08-19T09:32:22;24.46;69.39
71177;DHT22;58877;51.992;4.504;2022-08-19T09:34:48;24.26;69.55
71177;DHT22;58877;51.992;4.504;2022-08-19T09:37:14;23.99;69.78
71177;DHT22;58877;51.992;4.504;2022-08-19T09:39:40;23.95;70.20
71177;DHT22;58877;51.992;4.504;2022-08-19T09:42:07;23.53;70.75
71177;DHT22;58877;51.992;4.504;2022-08-19T09:44:41;23.40;71.76
71177;DHT22;58877;51.992;4.504;2022-08-19T09:47:08;23.31;71.69
71177;DHT22;58877;51.992;4.504;2022-08-19T09:49:34;23.06;71.93
71177;DHT22;58877;51.992;4.504;2022-08-19T09:52:26;23.26;71.70
71177;DHT22;58877;51.992;4.504;2022-08-19T09:54:52;23.34;72.01
71177;DHT22;58877;51.992;4.504;2022-08-19T09:57:18;23.46;72.02
71177;DHT22;58877;51.992;4.504;2022-08-19T09:59:44;23.77;70.24
71177;DHT22;58877;51.992;4.504;2022-08-19T10:02:10;23.92;69.64
71177;DHT22;58877;51.992;4.504;2022-08-19T10:04:38;24.04;68.04
71177;DHT22;58877;51.992;4.504;2022-08-19T10:07:22;24.23;67.13
71177;DHT22;58877;51.992;4.504;2022-08-19T10:09:47;24.16;67.51
71177;DHT22;58877;51.992;4.504;2022-08-19T10:12:13;23.97;67.40
71177;DHT22;58877;51.992;4.504;2022-08-19T10:14:40;24.01;68.36
71177;DHT22;58877;51.992;4.504;2022-08-19T10:17:06;24.49;67.46
71177;DHT22;58877;51.992;4.504;2022-08-19T10:19:32;25.03;65.57
71177;DHT22;58877;51.992;4.504;2022-08-19T10:22:05;25.23;65.40
71177;DHT22;58877;51.992;4.504;2022-08-19T10:24:35;25.58;63.85
71177;DHT22;58877;51.992;4.504;2022-08-19T10:27:01;25.13;64.54
71177;DHT22;58877;51.992;4.504;2022-08-19T10:29:29;24.88;65.38
71177;DHT22;58877;51.992;4.504;2022-08-19T10:31:55;25.30;65.23
71177;DHT22;58877;51.992;4.504;2022-08-19T10:34:24;25.33;62.44
71177;DHT22;58877;51.992;4.504;2022-08-19T10:36:50;25.34;63.63
71177;DHT22;58877;51.992;4.504;2022-08-19T10:39:16;25.51;63.02
71177;DHT22;58877;51.992;4.504;2022-08-19T10:41:42;25.54;63.11
71177;DHT22;58877;51.992;4.504;2022-08-19T10:44:12;25.67;63.20
71177;DHT22;58877;51.992;4.504;2022-08-19T10:46:42;25.26;63.89
71177;DHT22;58877;51.992;4.504;2022-08-19T10:49:10;25.04;64.56
71177;DHT22;58877;51.992;4.504;2022-08-19T10:51:39;24.98;65.14
71177;DHT22;58877;51.992;4.504;2022-08-19T10:54:23;24.64;65.91
71177;DHT22;58877;51.992;4.504;2022-08-19T10:57:09;24.08;66.87
71177;DHT22;58877;51.992;4.504;2022-08-19T10:59:36;24.06;68.22
71177;DHT22;58877;51.992;4.504;2022-08-19T11:02:06;24.51;67.48
71177;DHT22;58877;51.992;4.504;2022-08-19T11:04:33;24.33;67.02
71177;DHT22;58877;51.992;4.504;2022-08-19T11:06:58;24.19;67.36
71177;DHT22;58877;51.992;4.504;2022-08-19T11:09:27;23.67;69.47
71177;DHT22;58877;51.992;4.504;2022-08-19T11:11:53;23.72;70.11
71177;DHT22;58877;51.992;4.504;2022-08-19T11:14:20;23.86;69.89
71177;DHT22;58877;51.992;4.504;2022-08-19T11:16:51;23.61;71.20
71177;DHT22;58877;51.992;4.504;2022-08-19T11:19:19;23.51;71.91
71177;DHT22;58877;51.992;4.504;2022-08-19T11:21:47;23.62;71.77
71177;DHT22;58877;51.992;4.504;2022-08-19T11:24:22;23.40;71.65
71177;DHT22;58877;51.992;4.504;2022-08-19T11:26:50;23.30;72.45
71177;DHT22;58877;51.992;4.504;2022-08-19T11:29:18;23.20;72.06
71177;DHT22;58877;51.992;4.504;2022-08-19T11:31:47;23.31;72.24
71177;DHT22;58877;51.992;4.504;2022-08-19T11:34:17;23.81;71.07
71177;DHT22;58877;51.992;4.504;2022-08-19T11:36:45;24.18;69.14
71177;DHT22;58877;51.992;4.504;2022-08-19T11:39:15;24.46;68.58
71177;DHT22;58877;51.992;4.504;2022-08-19T11:41:42;24.69;68.13
71177;DHT22;58877;51.992;4.504;2022-08-19T11:44:08;24.52;66.87
71177;DHT22;58877;51.992;4.504;2022-08-19T11:46:36;24.48;67.03
71177;DHT22;58877;51.992;4.504;2022-08-19T11:49:04;24.26;66.83
71177;DHT22;58877;51.992;4.504;2022-08-19T11:51:31;24.23;67.77
71177;DHT22;58877;51.992;4.504;2022-08-19T11:53:58;24.08;68.80
71177;DHT22;58877;51.992;4.504;2022-08-19T11:56:26;24.08;69.25
71177;DHT22;58877;51.992;4.504;2022-08-19T11:58:53;24.06;69.68
71177;DHT22;58877;51.992;4.504;2022-08-19T12:01:24;23.92;70.42
71177;DHT22;58877;51.992;4.504;2022-08-19T12:03:52;24.06;70.35
71177;DHT22;58877;51.992;4.504;2022-08-19T12:06:30;24.42;69.41
71177;DHT22;58877;51.992;4.504;2022-08-19T12:09:00;24.59;68.89
71177;DHT22;58877;51.992;4.504;2022-08-19T12:11:27;24.96;67.79
71177;DHT22;58877;51.992;4.504;2022-08-19T12:13:53;25.02;68.10
71177;DHT22;58877;51.992;4.504;2022-08-19T12:16:25;24.90;68.53
71177;DHT22;58877;51.992;4.504;2022-08-19T12:18:52;24.93;68.46
71177;DHT22;58877;51.992;4.504;2022-08-19T12:21:24;24.82;67.18
71177;DHT22;58877;51.992;4.504;2022-08-19T12:23:50;24.96;67.72
71177;DHT22;58877;51.992;4.504;2022-08-19T12:26:17;24.74;68.18
71177;DHT22;58877;51.992;4.504;2022-08-19T12:28:46;24.09;69.86
71177;DHT22;58877;51.992;4.504;2022-08-19T12:31:14;24.49;69.91
71177;DHT22;58877;51.992;4.504;2022-08-19T12:33:41;24.40;69.64
71177;DHT22;58877;51.992;4.504;2022-08-19T12:36:11;24.13;70.33
71177;DHT22;58877;51.992;4.504;2022-08-19T12:38:39;24.30;70.40
71177;DHT22;58877;51.992;4.504;2022-08-19T12:41:11;24.52;70.22
71177;DHT22;58877;51.992;4.504;2022-08-19T12:43:40;24.35;70.48
71177;DHT22;58877;51.992;4.504;2022-08-19T12:46:08;24.42;70.93
71177;DHT22;58877;51.992;4.504;2022-08-19T12:48:34;24.55;69.61
71177;DHT22;58877;51.992;4.504;2022-08-19T12:51:05;24.43;70.05
71177;DHT22;58877;51.992;4.504;2022-08-19T12:53:33;24.25;70.64
71177;DHT22;58877;51.992;4.504;2022-08-19T12:55:58;24.22;71.42
71177;DHT22;58877;51.992;4.504;2022-08-19T12:58:25;24.49;70.28
71177;DHT22;58877;51.992;4.504;2022-08-19T13:00:51;24.26;70.31
71177;DHT22;58877;51.992;4.504;2022-08-19T13:03:17;24.12;71.17
71177;DHT22;58877;51.992;4.504;2022-08-19T13:05:42;24.12;71.80
71177;DHT22;58877;51.992;4.504;2022-08-19T13:08:08;24.33;71.15
71177;DHT22;58877;51.992;4.504;2022-08-19T13:10:35;24.25;70.42
71177;DHT22;58877;51.992;4.504;2022-08-19T13:13:05;24.48;70.19
71177;DHT22;58877;51.992;4.504;2022-08-19T13:15:34;24.74;68.60
71177;DHT22;58877;51.992;4.504;2022-08-19T13:18:00;24.84;69.41
71177;DHT22;58877;51.992;4.504;2022-08-19T13:20:26;24.83;68.91
71177;DHT22;58877;51.992;4.504;2022-08-19T13:22:53;24.72;68.53
71177;DHT22;58877;51.992;4.504;2022-08-19T13:25:19;24.67;69.35
71177;DHT22;58877;51.992;4.504;2022-08-19T13:27:46;24.55;69.00
71177;DHT22;58877;51.992;4.504;2022-08-19T13:30:15;25.06;68.34
71177;DHT22;58877;51.992;4.504;2022-08-19T13:33:00;25.04;66.69
71177;DHT22;58877;51.992;4.504;2022-08-19T13:35:51;24.91;66.26
71177;DHT22;58877;51.992;4.504;2022-08-19T13:38:23;24.56;66.97
71177;DHT22;58877;51.992;4.504;2022-08-19T13:40:54;24.39;67.95
71177;DHT22;58877;51.992;4.504;2022-08-19T13:43:26;24.52;68.12
71177;DHT22;58877;51.992;4.504;2022-08-19T13:45:53;24.57;67.02
71177;DHT22;58877;51.992;4.504;2022-08-19T13:48:22;24.77;66.07
71177;DHT22;58877;51.992;4.504;2022-08-19T13:50:49;24.90;64.76
71177;DHT22;58877;51.992;4.504;2022-08-19T13:53:19;24.87;63.34
71177;DHT22;58877;51.992;4.504;2022-08-19T13:55:45;24.57;64.73
71177;DHT22;58877;51.992;4.504;2022-08-19T13:58:14;24.72;64.74
71177;DHT22;58877;51.992;4.504;2022-08-19T14:00:43;24.66;65.73
71177;DHT22;58877;51.992;4.504;2022-08-19T14:03:13;24.96;65.78
71177;DHT22;58877;51.992;4.504;2022-08-19T14:05:39;25.30;64.25
71177;DHT22;58877;51.992;4.504;2022-08-19T14:08:05;25.08;65.04
71177;DHT22;58877;51.992;4.504;2022-08-19T14:10:34;24.79;64.78
71177;DHT22;58877;51.992;4.504;2022-08-19T14:13:16;24.42;66.30
71177;DHT22;58877;51.992;4.504;2022-08-19T14:15:43;24.36;66.82
71177;DHT22;58877;51.992;4.504;2022-08-19T14:18:08;24.35;66.96
71177;DHT22;58877;51.992;4.504;2022-08-19T14:20:35;24.35;67.54
71177;DHT22;58877;51.992;4.504;2022-08-19T14:23:02;24.18;68.09
71177;DHT22;58877;51.992;4.504;2022-08-19T14:25:29;24.11;68.64
71177;DHT22;58877;51.992;4.504;2022-08-19T14:27:57;24.15;68.41
71177;DHT22;58877;51.992;4.504;2022-08-19T14:30:28;24.39;68.71
71177;DHT22;58877;51.992;4.504;2022-08-19T14:32:56;24.53;69.49
71177;DHT22;58877;51.992;4.504;2022-08-19T14:35:27;24.79;69.06
71177;DHT22;58877;51.992;4.504;2022-08-19T14:37:54;25.00;68.20
71177;DHT22;58877;51.992;4.504;2022-08-19T14:40:22;24.93;68.56
71177;DHT22;58877;51.992;4.504;2022-08-19T14:42:56;24.93;68.94
71177;DHT22;58877;51.992;4.504;2022-08-19T14:45:26;24.90;69.47
71177;DHT22;58877;51.992;4.504;2022-08-19T14:47:52;25.00;69.15
71177;DHT22;58877;51.992;4.504;2022-08-19T14:50:19;24.72;70.27
71177;DHT22;58877;51.992;4.504;2022-08-19T14:52:48;24.67;70.17
71177;DHT22;58877;51.992;4.504;2022-08-19T14:55:16;24.42;70.95
71177;DHT22;58877;51.992;4.504;2022-08-19T14:57:43;24.28;71.43
71177;DHT22;58877;51.992;4.504;2022-08-19T15:00:10;24.25;71.49
71177;DHT22;58877;51.992;4.504;2022-08-19T15:02:39;24.23;71.53
71177;DHT22;58877;51.992;4.504;2022-08-19T15:05:05;24.18;71.87
71177;DHT22;58877;51.992;4.504;2022-08-19T15:07:31;23.99;72.29
71177;DHT22;58877;51.992;4.504;2022-08-19T15:09:58;23.88;73.10
71177;DHT22;58877;51.992;4.504;2022-08-19T15:12:24;23.57;73.13
71177;DHT22;58877;51.992;4.504;2022-08-19T15:14:50;23.27;73.93
71177;DHT22;58877;51.992;4.504;2022-08-19T15:17:17;23.03;74.90
71177;DHT22;58877;51.992;4.504;2022-08-19T15:19:44;23.16;74.86
71177;DHT22;58877;51.992;4.504;2022-08-19T15:22:16;22.93;75.97
71177;DHT22;58877;51.992;4.504;2022-08-19T15:24:42;22.50;78.12
71177;DHT22;58877;51.992;4.504;2022-08-19T15:27:12;22.16;79.75
71177;DHT22;58877;51.992;4.504;2022-08-19T15:29:40;22.11;80.88
71177;DHT22;58877;51.992;4.504;2022-08-19T15:32:07;22.01;80.56
71177;DHT22;58877;51.992;4.504;2022-08-19T15:34:35;21.71;83.45
71177;DHT22;58877;51.992;4.504;2022-08-19T15:37:01;21.75;83.69
71177;DHT22;58877;51.992;4.504;2022-08-19T15:39:28;21.77;84.03
71177;DHT22;58877;51.992;4.504;2022-08-19T15:41:55;21.85;83.10
71177;DHT22;58877;51.992;4.504;2022-08-19T15:44:21;21.69;83.19
71177;DHT22;58877;51.992;4.504;2022-08-19T15:46:47;21.88;83.49
71177;DHT22;58877;51.992;4.504;2022-08-19T15:49:17;21.87;82.96
71177;DHT22;58877;51.992;4.504;2022-08-19T15:51:46;21.84;82.78
71177;DHT22;58877;51.992;4.504;2022-08-19T15:54:18;21.77;83.11
71177;DHT22;58877;51.992;4.504;2022-08-19T15:56:49;21.88;82.92
71177;DHT22;58877;51.992;4.504;2022-08-19T15:59:37;21.89;82.73
71177;DHT22;58877;51.992;4.504;2022-08-19T16:02:24;21.81;82.49